メインページ
METAR-TAF:

METAR-TAF

空港 :

Chetwynd, ブリティッシュコロンビア州, カナダ

緯度: 55-42N, 経度: 121-38W, 海抜: 609m

現時点の気象観測

当レポートは2時間16分前の01:00(UTC)に作成
南西の風 5kt
気温 14°C
湿度 41%
気圧 1017 hPa
視程: 56.3km
高度5000ftの雲はほとんどない
高度20000ftの雲は散在している

METAR: CYCQ 250100Z 22005KT 35SM FEW050 SCT200 14/01 A3004 RMK CU1CI3 LAST STFD OBS/NEXT 251300Z SLP192 DENSITY ALT 2300FT

時間: 20:16 (03:16 UTC)


TAF: 見つかりません

4,000以上の空港の気象観測と天気予報(METAR報とTAF報)

利用可能な観測所は地図上に黄色い丸と赤い丸で示す。

丸の上にカーソルを重ねると観測所名を参照できる。

次にクリックすると気象観測と天気予報を参照できる。

マップの切り替え:黒色「×」印の緑ボタンをクリックして拡大、「-」印の緑ボタンをクリックして縮小、緑色の三角印をクリックして隣りの地図に切り替え


METAR-TAF: